Terminal Aerodrome Forecast
Issued by NWS

Home | Current Version | Previous Version | Text Only | Print | Product List | Glossary Off
Versions: 1 2 3 4 5 6 7 8 9 10 11 12 13 14 15 16 17 18 19 20 21 22 23 24 25 26 27 28

000
FTUS43 KABR 150522
TAFATY
TAF
KATY 150522Z 1506/1606 30013KT P6SM SCT050
     FM151500 32014G23KT P6SM BKN015
     FM152100 32015G23KT P6SM FEW200
     FM152300 33011KT P6SM FEW200=

USA.gov is the U.S. government's official web portal to all federal, state and local government web resources and services.